createdAt,value
2023-04-10T00:02:27.032Z,5.20
2023-04-10T00:04:56.613Z,5.60
2023-04-10T00:07:24.650Z,4.67
2023-04-10T00:09:52.627Z,5.40
2023-04-10T00:12:20.940Z,4.17
2023-04-10T00:14:48.966Z,5.13
2023-04-10T00:17:16.919Z,5.30
2023-04-10T00:19:45.017Z,4.57
2023-04-10T00:22:14.439Z,5.60
2023-04-10T00:24:42.406Z,4.67
2023-04-10T00:27:10.498Z,4.43
2023-04-10T00:29:38.468Z,4.70
2023-04-10T00:32:06.476Z,4.37
2023-04-10T00:34:34.477Z,4.40
2023-04-10T00:37:02.440Z,4.73
2023-04-10T00:39:31.778Z,4.50
2023-04-10T00:41:59.778Z,4.63
2023-04-10T00:44:27.962Z,5.10
2023-04-10T00:46:55.974Z,4.57
2023-04-10T00:49:23.998Z,4.27
2023-04-10T00:51:52.510Z,4.33
2023-04-10T00:54:20.538Z,4.40
2023-04-10T00:56:51.160Z,3.37
2023-04-10T00:59:19.257Z,4.47
2023-04-10T01:01:47.282Z,4.00
2023-04-10T01:04:17.251Z,4.23
2023-04-10T01:06:56.636Z,4.27
2023-04-10T01:09:36.332Z,4.40
2023-04-10T01:12:16.954Z,4.17
2023-04-10T01:14:55.229Z,4.67
2023-04-10T01:17:29.479Z,5.07
2023-04-10T01:20:09.110Z,4.40
2023-04-10T01:22:42.760Z,5.10
2023-04-10T01:25:39.458Z,4.17
2023-04-10T01:28:25.888Z,4.43
2023-04-10T01:30:58.950Z,3.53
2023-04-10T01:33:42.002Z,4.50
2023-04-10T01:36:11.895Z,4.17
2023-04-10T01:38:42.865Z,4.47
2023-04-10T01:41:13.622Z,4.77
2023-04-10T01:43:43.085Z,4.13
2023-04-10T01:46:13.938Z,3.87
2023-04-10T01:48:42.683Z,3.67
2023-04-10T01:51:11.957Z,3.93
2023-04-10T01:53:41.346Z,3.87
2023-04-10T01:56:10.437Z,4.20
2023-04-10T01:58:38.564Z,4.80
2023-04-10T02:01:07.662Z,3.83
2023-04-10T02:03:37.660Z,4.00
2023-04-10T02:06:15.577Z,3.97
2023-04-10T02:08:50.959Z,3.97
2023-04-10T02:11:29.910Z,3.97
2023-04-10T02:14:01.995Z,3.90
2023-04-10T02:16:31.094Z,4.23
2023-04-10T02:19:02.950Z,3.60
2023-04-10T02:21:31.172Z,3.90
2023-04-10T02:23:59.765Z,4.03
2023-04-10T02:26:27.721Z,4.13
2023-04-10T02:28:55.869Z,3.93
2023-04-10T02:31:25.402Z,4.73
2023-04-10T02:33:53.602Z,4.33
2023-04-10T02:36:23.169Z,4.60
2023-04-10T02:38:51.138Z,3.90
2023-04-10T02:41:19.222Z,4.00
2023-04-10T02:43:47.190Z,3.53
2023-04-10T02:46:15.277Z,4.07
2023-04-10T02:48:43.292Z,4.47
2023-04-10T02:51:11.217Z,4.27
2023-04-10T02:53:40.698Z,4.47
2023-04-10T02:56:09.174Z,4.07
2023-04-10T02:58:37.126Z,4.27
2023-04-10T03:01:06.825Z,4.33
2023-04-10T03:03:34.974Z,3.73
2023-04-10T03:06:03.000Z,4.60
2023-04-10T03:08:31.264Z,4.57
2023-04-10T03:11:00.812Z,5.10
2023-04-10T03:13:28.763Z,3.60
2023-04-10T03:15:56.789Z,4.33
2023-04-10T03:18:24.886Z,4.57
2023-04-10T03:20:52.856Z,3.97
2023-04-10T03:23:20.811Z,4.67
2023-04-10T03:25:52.022Z,4.00
2023-04-10T03:28:21.349Z,3.57
2023-04-10T03:30:49.750Z,4.27
2023-04-10T03:33:17.829Z,3.83
2023-04-10T03:35:47.446Z,4.20
2023-04-10T03:38:15.470Z,3.70
2023-04-10T03:40:43.455Z,4.63
2023-04-10T03:43:11.438Z,4.50
2023-04-10T03:45:40.783Z,4.27
2023-04-10T03:48:08.873Z,4.23
2023-04-10T03:50:36.885Z,4.60
2023-04-10T03:53:05.242Z,4.67
2023-04-10T03:55:33.485Z,4.67
2023-04-10T03:58:01.444Z,4.67
2023-04-10T04:00:29.412Z,4.37
2023-04-10T04:03:01.034Z,4.40
2023-04-10T04:05:30.817Z,4.33
2023-04-10T04:07:58.975Z,4.80
2023-04-10T04:10:27.009Z,4.60
2023-04-10T04:12:54.990Z,3.83
2023-04-10T04:15:23.861Z,3.70
2023-04-10T04:17:52.058Z,4.40
2023-04-10T04:20:21.428Z,5.10
2023-04-10T04:22:49.423Z,4.53
2023-04-10T04:25:18.249Z,4.43
2023-04-10T04:27:46.493Z,4.97
2023-04-10T04:30:14.521Z,4.03
2023-04-10T04:32:42.498Z,3.97
2023-04-10T04:35:10.889Z,4.57
2023-04-10T04:37:40.795Z,7.03
2023-04-10T04:40:09.622Z,6.83
2023-04-10T04:42:37.897Z,4.93
2023-04-10T04:45:06.874Z,6.60
2023-04-10T04:47:36.013Z,7.47
2023-04-10T04:50:04.077Z,9.00
2023-04-10T04:52:32.146Z,7.97
2023-04-10T04:55:01.555Z,7.73
2023-04-10T04:57:29.493Z,8.47
2023-04-10T04:59:57.602Z,6.57
2023-04-10T05:02:25.688Z,5.60
2023-04-10T05:04:53.782Z,5.10
2023-04-10T05:07:21.740Z,6.40
2023-04-10T05:09:49.705Z,5.33
2023-04-10T05:12:19.076Z,5.20
2023-04-10T05:14:47.824Z,6.03
2023-04-10T05:17:16.862Z,5.07
2023-04-10T05:19:44.986Z,5.83
2023-04-10T05:22:12.948Z,4.63
2023-04-10T05:24:40.913Z,5.40
2023-04-10T05:27:08.893Z,4.67
2023-04-10T05:29:38.225Z,4.87
2023-04-10T05:32:06.455Z,5.13
2023-04-10T05:34:34.824Z,5.57
2023-04-10T05:37:02.761Z,5.33
2023-04-10T05:39:30.710Z,5.23
2023-04-10T05:41:58.825Z,5.73
2023-04-10T05:44:26.774Z,4.77
2023-04-10T05:46:56.104Z,5.07
2023-04-10T05:49:24.081Z,5.20
2023-04-10T05:51:52.728Z,5.57
2023-04-10T05:54:21.115Z,5.17
2023-04-10T05:56:49.112Z,5.70
2023-04-10T05:59:17.046Z,5.27
2023-04-10T06:01:45.725Z,5.90
2023-04-10T06:04:15.507Z,5.43
2023-04-10T06:06:43.804Z,5.60
2023-04-10T06:09:11.812Z,5.20
2023-04-10T06:11:39.851Z,5.63
2023-04-10T06:14:07.911Z,5.13
2023-04-10T06:16:36.438Z,5.70
2023-04-10T06:19:04.479Z,5.43
2023-04-10T06:21:33.872Z,6.00
2023-04-10T06:24:02.314Z,5.33
2023-04-10T06:26:30.333Z,5.57
2023-04-10T06:29:01.541Z,6.10
2023-04-10T06:31:29.552Z,5.90
2023-04-10T06:34:00.439Z,6.10
2023-04-10T06:36:28.737Z,6.40
2023-04-10T06:38:58.099Z,6.17
2023-04-10T06:41:28.856Z,5.73
2023-04-10T06:43:56.823Z,5.40
2023-04-10T06:46:24.873Z,5.57
2023-04-10T06:48:53.170Z,6.33
2023-04-10T06:51:21.298Z,5.40
2023-04-10T06:53:49.300Z,6.33
2023-04-10T06:56:18.615Z,5.73
2023-04-10T06:58:46.556Z,5.77
2023-04-10T07:01:14.563Z,6.27
2023-04-10T07:03:42.600Z,6.83
2023-04-10T07:06:11.753Z,5.83
2023-04-10T07:08:40.063Z,5.90
2023-04-10T07:11:10.413Z,5.30
2023-04-10T07:13:40.182Z,5.73
2023-04-10T07:16:09.728Z,5.80
2023-04-10T07:18:38.542Z,6.07
2023-04-10T07:21:12.393Z,5.07
2023-04-10T07:23:40.856Z,5.40
2023-04-10T07:26:08.823Z,5.43
2023-04-10T07:28:36.818Z,4.87
2023-04-10T07:31:07.939Z,6.00
2023-04-10T07:33:36.242Z,5.33
2023-04-10T07:36:05.960Z,4.83
2023-04-10T07:38:34.063Z,5.27
2023-04-10T07:41:02.059Z,4.73
2023-04-10T07:43:30.485Z,4.77
2023-04-10T07:45:58.622Z,4.77
2023-04-10T07:48:27.992Z,4.83
2023-04-10T07:50:56.013Z,3.50
2023-04-10T07:53:23.973Z,4.30
2023-04-10T07:55:53.532Z,3.73
2023-04-10T07:58:22.721Z,3.97
2023-04-10T08:00:50.673Z,3.78
2023-04-10T08:03:18.813Z,3.65
2023-04-10T08:05:48.362Z,3.47
2023-04-10T08:08:16.953Z,4.28
2023-04-10T08:10:44.997Z,3.72
2023-04-10T08:13:13.034Z,4.30
2023-04-10T08:15:41.287Z,5.28
2023-04-10T08:18:09.230Z,5.22
2023-04-10T08:20:37.282Z,5.25
2023-04-10T08:25:54.943Z,5.28
2023-04-10T08:28:22.905Z,5.40
2023-04-10T08:30:50.897Z,4.57
2023-04-10T08:33:18.893Z,4.70
2023-04-10T08:35:49.020Z,4.90
2023-04-10T08:38:18.431Z,5.38
2023-04-10T08:40:46.475Z,4.38
2023-04-10T08:43:14.698Z,5.30
2023-04-10T08:45:42.782Z,4.50
2023-04-10T08:48:12.012Z,4.80
2023-04-10T08:50:43.403Z,5.18
2023-04-10T08:53:13.367Z,4.38
2023-04-10T08:55:43.214Z,3.85
2023-04-10T08:58:13.659Z,5.20
2023-04-10T09:00:41.649Z,4.47
2023-04-10T09:03:11.910Z,4.40
2023-04-10T09:05:40.099Z,3.90
2023-04-10T09:08:09.758Z,4.65
2023-04-10T09:10:37.823Z,4.35
2023-04-10T09:13:07.149Z,4.10
2023-04-10T09:15:57.188Z,4.93
2023-04-10T09:18:42.321Z,4.50
2023-04-10T09:21:11.068Z,3.85
2023-04-10T09:23:39.482Z,4.28
2023-04-10T09:26:27.921Z,4.38
2023-04-10T09:29:04.328Z,3.88
2023-04-10T09:31:34.919Z,4.28
2023-04-10T09:34:12.925Z,3.97
2023-04-10T09:36:42.357Z,3.90
2023-04-10T09:39:11.932Z,4.30
2023-04-10T09:41:50.778Z,4.00
2023-04-10T09:44:29.926Z,3.88
2023-04-10T09:46:58.105Z,4.25
2023-04-10T09:49:26.794Z,4.10
2023-04-10T09:51:54.789Z,4.35
2023-04-10T09:54:37.659Z,4.15
2023-04-10T09:57:08.314Z,3.97
2023-04-10T09:59:41.223Z,4.00
2023-04-10T10:02:10.652Z,4.25
2023-04-10T10:04:40.563Z,4.57
2023-04-10T10:07:08.956Z,4.35
2023-04-10T10:09:37.961Z,4.07
2023-04-10T10:12:07.181Z,4.15
2023-04-10T10:14:39.366Z,3.92
2023-04-10T10:17:12.719Z,4.60
2023-04-10T10:19:46.446Z,3.97
2023-04-10T10:22:15.296Z,3.75
2023-04-10T10:24:48.297Z,2.88
2023-04-10T10:27:18.985Z,3.38
2023-04-10T10:29:47.872Z,3.28
2023-04-10T10:32:18.571Z,3.08
2023-04-10T10:34:47.186Z,2.65
2023-04-10T10:37:16.073Z,2.42
2023-04-10T10:39:51.125Z,1.98
2023-04-10T10:42:24.418Z,2.10
2023-04-10T10:45:02.143Z,1.75
2023-04-10T10:47:33.488Z,1.75
2023-04-10T10:50:03.278Z,1.48
2023-04-10T10:52:42.281Z,1.90
2023-04-10T10:55:34.909Z,1.48
2023-04-10T10:58:05.160Z,1.45
2023-04-10T11:01:10.776Z,1.92
2023-04-10T11:03:40.809Z,1.90
2023-04-10T11:06:12.617Z,1.70
2023-04-10T11:08:44.193Z,1.60
2023-04-10T11:11:16.033Z,1.70
2023-04-10T11:14:17.803Z,1.40
2023-04-10T11:16:49.234Z,1.60
2023-04-10T11:19:22.599Z,1.77
2023-04-10T11:22:09.011Z,1.40
2023-04-10T11:24:56.260Z,1.60
2023-04-10T11:27:48.726Z,1.95
2023-04-10T11:30:34.085Z,2.03
2023-04-10T11:33:03.587Z,1.95
2023-04-10T11:35:33.738Z,2.38
2023-04-10T11:38:16.238Z,1.40
2023-04-10T11:40:59.240Z,1.30
2023-04-10T11:43:27.252Z,1.30
2023-04-10T11:46:06.169Z,1.50
2023-04-10T11:48:34.870Z,1.60
2023-04-10T11:51:10.537Z,1.77
2023-04-10T11:53:39.040Z,1.40
2023-04-10T11:56:15.662Z,1.63
2023-04-10T11:58:43.709Z,1.25
2023-04-10T12:01:14.460Z,1.50
2023-04-10T12:03:44.421Z,1.27
2023-04-10T12:06:15.512Z,1.00
2023-04-10T12:08:46.482Z,1.20
2023-04-10T12:11:16.001Z,1.10
2023-04-10T12:13:43.962Z,1.05
2023-04-10T12:16:12.344Z,1.08
2023-04-10T12:18:40.753Z,1.00
2023-04-10T12:21:09.099Z,1.00
2023-04-10T12:23:40.261Z,0.80
2023-04-10T12:26:13.788Z,1.00
2023-04-10T12:28:43.470Z,0.80
2023-04-10T12:31:11.678Z,0.90
2023-04-10T12:33:40.753Z,1.00
2023-04-10T12:36:21.990Z,1.30
2023-04-10T12:38:51.860Z,0.93
2023-04-10T12:41:23.735Z,1.00
2023-04-10T12:43:53.145Z,0.90
2023-04-10T12:46:25.442Z,0.85
2023-04-10T12:48:53.815Z,0.90
2023-04-10T12:51:42.053Z,1.10
2023-04-10T12:54:11.453Z,1.20
2023-04-10T12:56:43.715Z,1.13
2023-04-10T12:59:12.603Z,1.10
2023-04-10T13:01:40.742Z,1.13
2023-04-10T13:04:08.886Z,1.00
2023-04-10T13:06:44.072Z,1.10
2023-04-10T13:09:13.786Z,1.05
2023-04-10T13:11:41.988Z,1.10
2023-04-10T13:14:11.060Z,1.10
2023-04-10T13:16:39.151Z,1.30
2023-04-10T13:19:07.167Z,1.20
2023-04-10T13:21:35.151Z,1.20
2023-04-10T13:24:03.184Z,1.25
2023-04-10T13:26:32.549Z,1.70
2023-04-10T13:29:00.511Z,1.55
2023-04-10T13:31:28.722Z,1.15
2023-04-10T13:33:56.727Z,1.20
2023-04-10T13:36:24.826Z,1.70
2023-04-10T13:38:53.143Z,1.40
2023-04-10T13:41:21.390Z,1.20
2023-04-10T13:43:50.801Z,1.40
2023-04-10T13:46:18.800Z,1.20
2023-04-10T13:48:46.792Z,1.13
2023-04-10T13:51:14.777Z,1.30
2023-04-10T13:53:42.781Z,1.40
2023-04-10T13:56:11.130Z,1.38
2023-04-10T13:58:39.280Z,1.15
2023-04-10T14:01:09.030Z,1.20
2023-04-10T14:03:37.105Z,1.20
2023-04-10T14:06:05.486Z,1.00
2023-04-10T14:08:33.466Z,1.10
2023-04-10T14:11:01.432Z,1.00
2023-04-10T14:13:30.377Z,1.00
2023-04-10T14:15:58.310Z,1.20
2023-04-10T14:18:27.676Z,1.35
2023-04-10T14:20:55.648Z,1.20
2023-04-10T14:23:23.633Z,1.00
2023-04-10T14:25:51.993Z,1.20
2023-04-10T14:28:20.040Z,1.10
2023-04-10T14:30:49.399Z,1.40
2023-04-10T14:33:19.667Z,1.08
2023-04-10T14:35:49.373Z,1.25
2023-04-10T14:38:17.446Z,1.15
2023-04-10T14:40:48.486Z,1.17
2023-04-10T14:43:16.587Z,1.70
2023-04-10T14:45:44.566Z,1.30
2023-04-10T14:48:13.627Z,1.10
2023-04-10T14:50:41.683Z,1.17
2023-04-10T14:53:11.004Z,1.00
2023-04-10T14:55:39.010Z,1.30
2023-04-10T14:58:08.953Z,1.40
2023-04-10T15:00:37.154Z,1.10
2023-04-10T15:03:06.550Z,1.15
2023-04-10T15:05:34.668Z,0.95
2023-04-10T15:08:02.689Z,0.95
2023-04-10T15:10:32.048Z,1.20
2023-04-10T15:13:00.011Z,1.17
2023-04-10T15:15:27.971Z,1.10
2023-04-10T15:17:55.973Z,1.10
2023-04-10T15:20:23.963Z,1.30
2023-04-10T15:22:51.917Z,1.23
2023-04-10T15:25:19.966Z,1.00
2023-04-10T15:27:49.311Z,1.17
2023-04-10T15:30:17.394Z,0.90
2023-04-10T15:32:45.420Z,1.20
2023-04-10T15:35:13.457Z,1.25
2023-04-10T15:37:41.429Z,1.00
2023-04-10T15:40:10.484Z,1.20
2023-04-10T15:42:39.389Z,1.08
2023-04-10T15:45:09.153Z,1.10
2023-04-10T15:47:37.157Z,1.20
2023-04-10T15:50:05.689Z,1.15
2023-04-10T15:52:33.871Z,1.27
2023-04-10T15:55:01.885Z,1.50
2023-04-10T15:57:29.853Z,1.23
2023-04-10T16:00:00.403Z,1.33
2023-04-10T16:02:32.105Z,1.30
2023-04-10T16:05:00.406Z,1.38
2023-04-10T16:07:28.525Z,1.20
2023-04-10T16:09:58.226Z,1.30
2023-04-10T16:12:26.268Z,1.02
2023-04-10T16:14:54.240Z,1.27
2023-04-10T16:17:22.222Z,1.50
2023-04-10T16:19:51.565Z,1.50
2023-04-10T16:22:19.574Z,1.55
2023-04-10T16:24:47.578Z,1.48
2023-04-10T16:27:15.542Z,1.40
2023-04-10T16:29:44.607Z,1.40
2023-04-10T16:32:12.569Z,1.55
2023-04-10T16:34:40.581Z,1.35
2023-04-10T16:37:10.255Z,1.30
2023-04-10T16:39:39.199Z,1.45
2023-04-10T16:42:07.369Z,1.50
2023-04-10T16:44:35.323Z,1.50
2023-04-10T16:47:03.317Z,1.90
2023-04-10T16:49:31.412Z,1.60
2023-04-10T16:51:59.458Z,1.60
2023-04-10T16:54:28.791Z,1.58
2023-04-10T16:56:57.012Z,1.50
2023-04-10T16:59:25.029Z,1.70
2023-04-10T17:01:53.237Z,1.60
2023-04-10T17:04:21.287Z,1.50
2023-04-10T17:06:49.322Z,1.55
2023-04-10T17:09:17.361Z,1.52
2023-04-10T17:11:46.815Z,1.63
2023-04-10T17:14:16.052Z,1.60
2023-04-10T17:16:44.090Z,1.58
2023-04-10T17:19:12.190Z,1.45
2023-04-10T17:21:40.189Z,1.50
2023-04-10T17:24:08.140Z,1.60
2023-04-10T17:26:36.173Z,1.77
2023-04-10T17:29:05.491Z,1.58
2023-04-10T17:31:33.517Z,1.70
2023-04-10T17:34:01.502Z,1.60
2023-04-10T17:36:29.466Z,2.00
2023-04-10T17:38:57.639Z,1.40
2023-04-10T17:41:25.807Z,1.42
2023-04-10T17:43:53.794Z,1.60
2023-04-10T17:46:23.353Z,2.58
2023-04-10T17:48:51.340Z,2.15
2023-04-10T17:51:19.373Z,1.98
2023-04-10T17:53:47.330Z,1.83
2023-04-10T17:56:23.498Z,1.88
2023-04-10T17:58:53.773Z,2.00
2023-04-10T18:01:25.794Z,1.55
2023-04-10T18:03:53.862Z,2.08
2023-04-10T18:06:21.892Z,2.15
2023-04-10T18:08:50.498Z,2.20
2023-04-10T18:11:19.000Z,2.10
2023-04-10T18:13:47.953Z,2.40
2023-04-10T18:16:15.932Z,2.72
2023-04-10T18:18:45.250Z,2.63
2023-04-10T18:21:13.582Z,2.20
2023-04-10T18:23:41.648Z,2.80
2023-04-10T18:26:09.618Z,2.40
2023-04-10T18:28:38.682Z,2.35
2023-04-10T18:31:08.464Z,2.13
2023-04-10T18:33:36.518Z,2.42
2023-04-10T18:36:06.377Z,1.90
2023-04-10T18:38:34.982Z,2.47
2023-04-10T18:41:03.055Z,2.03
2023-04-10T18:43:31.041Z,2.55
2023-04-10T18:45:59.428Z,2.70
2023-04-10T18:48:27.389Z,2.70
2023-04-10T18:50:55.357Z,2.70
2023-04-10T18:53:24.698Z,2.45
2023-04-10T18:55:53.234Z,3.30
2023-04-10T18:58:22.115Z,2.72
2023-04-10T19:00:50.561Z,3.25
2023-04-10T19:03:18.697Z,4.57
2023-04-10T19:05:46.909Z,3.30
2023-04-10T19:08:15.746Z,3.20
2023-04-10T19:10:45.057Z,3.28
2023-04-10T19:13:13.756Z,3.15
2023-04-10T19:15:42.611Z,2.45
2023-04-10T19:18:12.403Z,1.92
2023-04-10T19:20:50.810Z,1.90
2023-04-10T19:23:21.670Z,2.33
2023-04-10T19:25:54.443Z,1.80
2023-04-10T19:28:23.937Z,1.95
2023-04-10T19:30:52.369Z,1.50
2023-04-10T19:33:20.757Z,2.03
2023-04-10T19:35:48.770Z,2.20
2023-04-10T19:38:16.892Z,1.73
2023-04-10T19:40:45.341Z,2.08
2023-04-10T19:43:14.791Z,2.03
2023-04-10T19:45:42.815Z,2.22
2023-04-10T19:48:11.951Z,2.30
2023-04-10T19:50:40.022Z,2.03
2023-04-10T19:53:08.095Z,1.92
2023-04-10T19:55:36.038Z,1.95
2023-04-10T19:58:04.046Z,1.80
2023-04-10T20:00:33.418Z,1.45
2023-04-10T20:03:01.554Z,2.05
2023-04-10T20:05:30.564Z,1.58
2023-04-10T20:07:58.547Z,2.00
2023-04-10T20:10:27.142Z,2.20
2023-04-10T20:12:55.092Z,2.88
2023-04-10T20:15:23.070Z,2.85
2023-04-10T20:17:52.487Z,3.70
2023-04-10T20:20:20.586Z,3.30
2023-04-10T20:22:48.569Z,2.53
2023-04-10T20:25:16.677Z,2.10
2023-04-10T20:27:44.652Z,1.90
2023-04-10T20:30:12.930Z,1.80
2023-04-10T20:32:40.982Z,1.93
2023-04-10T20:35:11.111Z,1.75
2023-04-10T20:37:39.114Z,1.77
2023-04-10T20:40:08.594Z,1.90
2023-04-10T20:42:36.643Z,2.10
2023-04-10T20:45:04.980Z,2.07
2023-04-10T20:47:35.001Z,4.85
2023-04-10T20:50:03.029Z,5.00
2023-04-10T20:52:32.353Z,2.57
2023-04-10T20:55:00.334Z,2.10
2023-04-10T20:57:28.285Z,2.00
2023-04-10T20:59:56.272Z,2.03
2023-04-10T21:02:24.387Z,2.07
2023-04-10T21:04:52.942Z,2.10
2023-04-10T21:07:20.916Z,1.95
2023-04-10T21:09:50.289Z,2.10
2023-04-10T21:12:18.255Z,2.03
2023-04-10T21:14:46.217Z,2.10
2023-04-10T21:17:14.186Z,2.20
2023-04-10T21:19:42.179Z,1.90
2023-04-10T21:22:11.173Z,2.00
2023-04-10T21:24:39.387Z,2.08
2023-04-10T21:27:08.729Z,1.63
2023-04-10T21:29:36.677Z,2.08
2023-04-10T21:32:04.700Z,1.60
2023-04-10T21:34:32.686Z,1.77
2023-04-10T21:37:00.716Z,2.10
2023-04-10T21:39:30.548Z,2.10
2023-04-10T21:41:58.480Z,2.40
2023-04-10T21:44:27.811Z,1.97
2023-04-10T21:46:56.213Z,1.90
2023-04-10T21:49:24.177Z,1.90
2023-04-10T21:51:52.185Z,2.20
2023-04-10T21:54:20.182Z,2.37
2023-04-10T21:56:48.179Z,2.17
2023-04-10T21:59:16.139Z,1.87
2023-04-10T22:01:45.628Z,2.43
2023-04-10T22:04:19.650Z,2.57
2023-04-10T22:06:47.950Z,2.10
2023-04-10T22:09:16.137Z,2.60
2023-04-10T22:11:44.230Z,2.53
2023-04-10T22:14:17.106Z,2.50
2023-04-10T22:16:48.172Z,1.93
2023-04-10T22:19:16.147Z,2.57
2023-04-10T22:21:44.107Z,2.40
2023-04-10T22:24:12.506Z,2.20
2023-04-10T22:26:42.112Z,2.40
2023-04-10T22:29:10.260Z,2.27
2023-04-10T22:31:38.222Z,2.37
2023-04-10T22:34:08.550Z,2.57
2023-04-10T22:36:36.733Z,2.97
2023-04-10T22:39:05.114Z,3.80
2023-04-10T22:41:33.398Z,3.63
2023-04-10T22:44:01.415Z,2.72
2023-04-10T22:46:29.578Z,2.58
2023-04-10T22:48:57.918Z,2.90
2023-04-10T22:51:27.795Z,2.17
2023-04-10T22:53:55.902Z,2.22
2023-04-10T22:56:26.455Z,2.58
2023-04-10T22:58:54.662Z,2.92
2023-04-10T23:01:23.065Z,2.20
2023-04-10T23:03:53.760Z,2.60
2023-04-10T23:06:21.988Z,2.80
2023-04-10T23:08:52.937Z,2.40
2023-04-10T23:11:21.744Z,2.80
2023-04-10T23:13:49.810Z,2.47
2023-04-10T23:16:17.809Z,2.60
2023-04-10T23:18:45.821Z,2.35
2023-04-10T23:21:13.825Z,2.33
2023-04-10T23:23:41.850Z,2.78
2023-04-10T23:26:12.095Z,2.58
2023-04-10T23:28:40.268Z,2.13
2023-04-10T23:31:09.376Z,2.50
2023-04-10T23:33:37.432Z,2.15
2023-04-10T23:36:06.170Z,2.20
2023-04-10T23:38:34.107Z,2.08
2023-04-10T23:41:06.006Z,2.13
2023-04-10T23:43:35.554Z,2.33
2023-04-10T23:46:03.512Z,2.15
2023-04-10T23:48:31.480Z,2.10
2023-04-10T23:51:09.630Z,2.63
2023-04-10T23:53:37.594Z,2.45
2023-04-10T23:56:07.811Z,2.20
2023-04-10T23:58:37.212Z,2.33
